createdAt,value
2018-12-13T00:00:47.195Z,95920.97
2018-12-13T00:03:16.506Z,95920.76
2018-12-13T00:05:45.605Z,95916.92
2018-12-13T00:08:14.813Z,95917.92
2018-12-13T00:10:44.143Z,95913.41
2018-12-13T00:13:13.200Z,95909.08
2018-12-13T00:15:42.301Z,95902.90
2018-12-13T00:18:11.391Z,95900.27
2018-12-13T00:20:40.663Z,95900.27
2018-12-13T00:23:09.947Z,95898.88
2018-12-13T00:25:39.084Z,95893.73
2018-12-13T00:28:08.170Z,95888.16
2018-12-13T00:30:37.256Z,95891.11
2018-12-13T00:33:06.570Z,95889.05
2018-12-13T00:35:35.654Z,95884.08
2018-12-13T00:38:04.839Z,95885.68
2018-12-13T00:40:33.926Z,95884.08
2018-12-13T00:43:03.115Z,95881.83
2018-12-13T00:45:32.226Z,95878.81
2018-12-13T00:48:01.339Z,95881.52
2018-12-13T00:50:30.534Z,95878.42
2018-12-13T00:52:59.642Z,95875.05
2018-12-13T00:55:28.836Z,95878.19
2018-12-13T00:57:57.978Z,95876.86
2018-12-13T01:00:27.122Z,95871.72
2018-12-13T01:02:56.332Z,95868.91
2018-12-13T01:05:25.498Z,95873.81
2018-12-13T01:07:54.630Z,95868.45
2018-12-13T01:10:24.082Z,95871.95
2018-12-13T01:12:53.178Z,95868.30
2018-12-13T01:15:22.361Z,95869.58
2018-12-13T01:17:51.718Z,95873.41
2018-12-13T01:20:20.817Z,95865.53
2018-12-13T01:22:49.937Z,95865.28
2018-12-13T01:25:19.055Z,95866.02
2018-12-13T01:27:48.202Z,95863.39
2018-12-13T01:30:17.410Z,95862.80
2018-12-13T01:32:46.541Z,95862.27
2018-12-13T01:35:15.701Z,95863.59
2018-12-13T01:37:44.810Z,95859.70
2018-12-13T01:40:14.002Z,95858.89
2018-12-13T01:42:43.090Z,95856.45
2018-12-13T01:45:12.394Z,95858.88
2018-12-13T01:47:41.578Z,95852.06
2018-12-13T01:50:10.658Z,95852.48
2018-12-13T01:52:39.794Z,95854.50
2018-12-13T01:55:08.872Z,95845.25
2018-12-13T01:57:38.282Z,95841.27
2018-12-13T02:00:07.582Z,95845.00
2018-12-13T02:02:36.776Z,95840.46
2018-12-13T02:05:06.284Z,95845.78
2018-12-13T02:07:35.481Z,95840.52
2018-12-13T02:10:05.350Z,95831.41
2018-12-13T02:12:34.434Z,95831.44
2018-12-13T02:15:04.234Z,95830.70
2018-12-13T02:17:33.294Z,95832.11
2018-12-13T02:20:02.811Z,95831.41
2018-12-13T02:22:32.141Z,95825.55
2018-12-13T02:25:01.241Z,95829.34
2018-12-13T02:27:30.430Z,95830.81
2018-12-13T02:29:59.568Z,95822.19
2018-12-13T02:32:28.672Z,95818.17
2018-12-13T02:34:57.918Z,95817.71
2018-12-13T02:37:27.087Z,95817.78
2018-12-13T02:39:56.375Z,95817.25
2018-12-13T02:42:25.468Z,95818.88
2018-12-13T02:44:54.589Z,95818.73
2018-12-13T02:47:23.872Z,95807.48
2018-12-13T02:49:53.066Z,95807.63
2018-12-13T02:52:22.203Z,95804.30
2018-12-13T02:54:51.336Z,95807.98
2018-12-13T02:57:20.541Z,95801.63
2018-12-13T02:59:49.664Z,95809.55
2018-12-13T03:02:18.830Z,95748.95
2018-12-13T03:04:47.938Z,95796.59
2018-12-13T03:07:17.166Z,95798.62
2018-12-13T03:09:46.263Z,95796.03
2018-12-13T03:12:15.447Z,95802.95
2018-12-13T03:14:44.750Z,95801.67
2018-12-13T03:17:13.833Z,95798.66
2018-12-13T03:19:43.019Z,95729.41
2018-12-13T03:22:12.119Z,95800.36
2018-12-13T03:24:41.209Z,95789.89
2018-12-13T03:27:10.294Z,95729.05
2018-12-13T03:29:39.429Z,95784.32
2018-12-13T03:32:08.732Z,95785.74
2018-12-13T03:34:38.011Z,95779.85
2018-12-13T03:37:07.245Z,95777.23
2018-12-13T03:39:36.417Z,95775.20
2018-12-13T03:42:05.706Z,95776.44
2018-12-13T03:44:34.826Z,95773.07
2018-12-13T03:47:05.408Z,95774.56
2018-12-13T03:49:34.526Z,95770.19
2018-12-13T03:52:03.832Z,95769.34
2018-12-13T03:54:32.909Z,95764.16
2018-12-13T03:57:02.014Z,95766.44
2018-12-13T03:59:31.132Z,95760.30
2018-12-13T04:02:00.221Z,95760.73
2018-12-13T04:04:29.417Z,95756.37
2018-12-13T04:07:00.672Z,95746.79
2018-12-13T04:09:29.751Z,95751.14
2018-12-13T04:11:58.951Z,95751.50
2018-12-13T04:14:28.303Z,95748.91
2018-12-13T04:16:57.389Z,95742.75
2018-12-13T04:19:26.569Z,95740.83
2018-12-13T04:21:55.695Z,95738.98
2018-12-13T04:24:24.759Z,95738.19
2018-12-13T04:26:53.915Z,95729.76
2018-12-13T04:29:23.227Z,95734.45
2018-12-13T04:31:52.445Z,95727.31
2018-12-13T04:34:21.618Z,95729.22
2018-12-13T04:36:50.839Z,95739.66
2018-12-13T04:39:20.020Z,95727.11
2018-12-13T04:41:49.152Z,95726.48
2018-12-13T04:44:18.347Z,95730.58
2018-12-13T04:46:47.524Z,95722.67
2018-12-13T04:49:16.686Z,95720.81
2018-12-13T04:51:45.811Z,95717.95
2018-12-13T04:54:14.902Z,95715.00
2018-12-13T04:56:43.994Z,95711.83
2018-12-13T04:59:13.253Z,95711.39
2018-12-13T05:01:42.336Z,95698.02
2018-12-13T05:04:11.561Z,95709.55
2018-12-13T05:06:40.694Z,95696.65
2018-12-13T05:09:09.954Z,95701.33
2018-12-13T05:11:39.054Z,95700.41
2018-12-13T05:14:08.347Z,95693.95
2018-12-13T05:16:37.537Z,95695.55
2018-12-13T05:19:06.655Z,95689.45
2018-12-13T05:21:35.761Z,95688.14
2018-12-13T05:24:04.974Z,95687.45
2018-12-13T05:26:34.259Z,95685.78
2018-12-13T05:29:03.579Z,95686.13
2018-12-13T05:31:32.961Z,95680.02
2018-12-13T05:34:02.187Z,95669.21
2018-12-13T05:36:31.469Z,95676.16
2018-12-13T05:39:00.645Z,95682.19
2018-12-13T05:41:29.789Z,95671.62
2018-12-13T05:43:58.997Z,95673.25
2018-12-13T05:46:28.099Z,95666.77
2018-12-13T05:48:57.201Z,95673.64
2018-12-13T05:51:26.368Z,95669.59
2018-12-13T05:53:55.458Z,95671.55
2018-12-13T05:56:24.567Z,95676.19
2018-12-13T05:58:53.747Z,95671.87
2018-12-13T06:01:22.911Z,95657.08
2018-12-13T06:03:52.011Z,95666.61
2018-12-13T06:06:21.136Z,95671.07
2018-12-13T06:08:50.307Z,95663.87
2018-12-13T06:11:19.401Z,95639.59
2018-12-13T06:13:48.655Z,95670.11
2018-12-13T06:16:17.856Z,95665.53
2018-12-13T06:18:48.143Z,95658.02
2018-12-13T06:21:17.603Z,95657.37
2018-12-13T06:23:46.735Z,95658.94
2018-12-13T06:26:15.918Z,95601.44
2018-12-13T06:28:45.032Z,95652.91
2018-12-13T06:31:14.242Z,95657.35
2018-12-13T06:33:43.407Z,95657.02
2018-12-13T06:36:12.537Z,95656.27
2018-12-13T06:38:41.628Z,95656.27
2018-12-13T06:41:10.827Z,95659.00
2018-12-13T06:43:40.159Z,95656.22
2018-12-13T06:46:09.271Z,95661.33
2018-12-13T06:48:38.377Z,95661.20
2018-12-13T06:51:07.651Z,95658.31
2018-12-13T06:53:36.807Z,95659.64
2018-12-13T06:56:06.030Z,95665.10
2018-12-13T06:58:35.266Z,95656.63
2018-12-13T07:01:04.606Z,95659.33
2018-12-13T07:03:33.821Z,95660.69
2018-12-13T07:06:03.042Z,95659.18
2018-12-13T07:08:32.234Z,95656.11
2018-12-13T07:11:01.658Z,95662.81
2018-12-13T07:13:31.001Z,95665.74
2018-12-13T07:16:00.141Z,95668.75
2018-12-13T07:18:29.282Z,95664.98
2018-12-13T07:20:58.510Z,95669.02
2018-12-13T07:23:27.638Z,95660.86
2018-12-13T07:25:56.750Z,95665.90
2018-12-13T07:28:25.931Z,95662.14
2018-12-13T07:30:55.172Z,95665.77
2018-12-13T07:33:24.398Z,95658.66
2018-12-13T07:35:53.582Z,95653.49
2018-12-13T07:38:22.770Z,95661.95
2018-12-13T07:40:51.966Z,95655.24
2018-12-13T07:43:21.106Z,95670.09
2018-12-13T07:45:50.254Z,95660.47
2018-12-13T07:48:19.401Z,95656.05
2018-12-13T07:50:48.514Z,95658.91
2018-12-13T07:53:17.595Z,95656.11
2018-12-13T07:55:46.754Z,95651.92
2018-12-13T07:58:15.991Z,95646.63
2018-12-13T08:00:45.407Z,95651.25
2018-12-13T08:03:14.554Z,95652.88
2018-12-13T08:05:43.779Z,95655.65
2018-12-13T08:08:12.960Z,95657.92
2018-12-13T08:10:42.120Z,95650.53
2018-12-13T08:13:11.359Z,95656.89
2018-12-13T08:15:40.620Z,95656.36
2018-12-13T08:18:09.910Z,95652.62
2018-12-13T08:20:39.479Z,95650.86
2018-12-13T08:23:08.705Z,95650.00
2018-12-13T08:25:37.827Z,95650.20
2018-12-13T08:28:07.169Z,95646.77
2018-12-13T08:30:36.327Z,95650.17
2018-12-13T08:33:05.439Z,95650.73
2018-12-13T08:35:34.687Z,95648.35
2018-12-13T08:38:03.793Z,95639.88
2018-12-13T08:40:32.884Z,95644.84
2018-12-13T08:43:02.020Z,95628.58
2018-12-13T08:45:31.203Z,95634.19
2018-12-13T08:48:00.310Z,95632.21
2018-12-13T08:50:29.541Z,95635.13
2018-12-13T08:52:58.727Z,95632.02
2018-12-13T08:55:27.906Z,95634.97
2018-12-13T08:57:57.031Z,95628.08
2018-12-13T09:00:26.226Z,95631.33
2018-12-13T09:02:55.383Z,95628.77
2018-12-13T09:05:24.599Z,95624.90
2018-12-13T09:07:53.708Z,95624.20
2018-12-13T09:10:22.822Z,95620.22
2018-12-13T09:12:51.949Z,95618.31
2018-12-13T09:15:21.047Z,95618.61
2018-12-13T09:17:50.182Z,95619.05
2018-12-13T09:20:19.342Z,95613.36
2018-12-13T09:22:48.435Z,95615.12
2018-12-13T09:25:17.540Z,95606.69
2018-12-13T09:27:46.742Z,95614.66
2018-12-13T09:30:15.872Z,95611.64
2018-12-13T09:32:45.070Z,95610.56
2018-12-13T09:35:14.250Z,95614.88
2018-12-13T09:37:47.512Z,95608.35
2018-12-13T09:40:14.631Z,95606.72
2018-12-13T09:42:43.844Z,95610.39
2018-12-13T09:45:13.034Z,95610.47
2018-12-13T09:47:42.154Z,95611.13
2018-12-13T09:50:11.574Z,95610.94
2018-12-13T09:52:40.683Z,95601.34
2018-12-13T09:55:09.793Z,95609.66
2018-12-13T09:57:38.918Z,95601.55
2018-12-13T10:00:09.814Z,95598.80
2018-12-13T10:02:38.933Z,95603.81
2018-12-13T10:05:08.257Z,95587.37
2018-12-13T10:07:37.342Z,95581.88
2018-12-13T10:10:06.665Z,95585.16
2018-12-13T10:12:35.969Z,95583.89
2018-12-13T10:15:05.945Z,95591.02
2018-12-13T10:17:35.155Z,95577.88
2018-12-13T10:20:04.620Z,95575.13
2018-12-13T10:22:33.788Z,95582.70
2018-12-13T10:25:03.170Z,95574.74
2018-12-13T10:27:32.559Z,95570.10
2018-12-13T10:30:01.762Z,95574.41
2018-12-13T10:32:30.971Z,95566.00
2018-12-13T10:35:00.231Z,95566.71
2018-12-13T10:37:29.979Z,95566.16
2018-12-13T10:39:59.279Z,95562.05
2018-12-13T10:42:28.404Z,95565.37
2018-12-13T10:44:57.615Z,95573.11
2018-12-13T10:47:26.711Z,95561.06
2018-12-13T10:49:55.870Z,95558.30
2018-12-13T10:52:24.982Z,95557.41
2018-12-13T10:54:54.190Z,95562.44
2018-12-13T10:57:23.326Z,95560.14
2018-12-13T10:59:52.401Z,95549.89
2018-12-13T11:02:26.923Z,95551.72
2018-12-13T11:04:55.995Z,95554.84
2018-12-13T11:07:25.074Z,95553.00
2018-12-13T11:09:54.516Z,95547.45
2018-12-13T11:12:23.603Z,95551.18
2018-12-13T11:14:52.734Z,95554.30
2018-12-13T11:17:21.846Z,95550.36
2018-12-13T11:19:51.221Z,95544.59
2018-12-13T11:22:20.285Z,95549.92
2018-12-13T11:24:49.402Z,95542.42
2018-12-13T11:28:27.384Z,95542.59
2018-12-13T11:30:56.705Z,95544.71
2018-12-13T11:33:25.799Z,95537.02
2018-12-13T11:35:54.910Z,95536.48
2018-12-13T11:38:24.128Z,95540.59
2018-12-13T11:40:53.218Z,95532.72
2018-12-13T11:43:22.315Z,95534.66
2018-12-13T11:45:51.426Z,95537.11
2018-12-13T11:48:20.533Z,95535.22
2018-12-13T11:50:49.650Z,95533.81
2018-12-13T11:53:18.767Z,95529.45
2018-12-13T11:55:47.948Z,95536.39
2018-12-13T11:58:17.687Z,95466.27
2018-12-13T12:00:46.825Z,95538.57
2018-12-13T12:03:15.910Z,95530.62
2018-12-13T12:05:45.007Z,95538.04
2018-12-13T12:08:14.129Z,95533.84
2018-12-13T12:10:43.325Z,95533.16
2018-12-13T12:13:12.497Z,95531.09
2018-12-13T12:15:41.771Z,95530.16
2018-12-13T12:18:11.088Z,95532.00
2018-12-13T12:20:40.277Z,95532.65
2018-12-13T12:23:09.537Z,95533.11
2018-12-13T12:25:38.709Z,95531.73
2018-12-13T12:28:07.891Z,95526.14
2018-12-13T12:30:37.029Z,95529.27
2018-12-13T12:33:06.252Z,95526.99
2018-12-13T12:35:35.325Z,95522.51
2018-12-13T12:38:04.671Z,95525.25
2018-12-13T12:40:33.785Z,95529.28
2018-12-13T12:43:02.907Z,95523.14
2018-12-13T12:45:32.032Z,95525.26
2018-12-13T12:48:01.465Z,95529.27
2018-12-13T12:50:30.543Z,95527.80
2018-12-13T12:52:59.667Z,95532.55
2018-12-13T12:55:28.762Z,95520.52
2018-12-13T12:57:57.891Z,95521.80
2018-12-13T13:00:27.079Z,95520.05
2018-12-13T13:02:56.411Z,95517.22
2018-12-13T13:05:25.503Z,95522.41
2018-12-13T13:07:54.775Z,95520.88
2018-12-13T13:10:23.921Z,95519.22
2018-12-13T13:12:53.003Z,95521.61
2018-12-13T13:15:22.123Z,95523.14
2018-12-13T13:17:51.283Z,95517.22
2018-12-13T13:20:20.615Z,95522.42
2018-12-13T13:22:49.746Z,95519.59
2018-12-13T13:25:18.951Z,95530.33
2018-12-13T13:27:48.078Z,95526.30
2018-12-13T13:30:17.269Z,95525.02
2018-12-13T13:32:46.478Z,95526.69
2018-12-13T13:35:15.677Z,95524.10
2018-12-13T13:37:44.940Z,95530.52
2018-12-13T13:40:14.052Z,95528.39
2018-12-13T13:42:43.178Z,95528.51
2018-12-13T13:45:12.480Z,95524.10
2018-12-13T13:47:41.555Z,95530.02
2018-12-13T13:50:11.276Z,95530.30
2018-12-13T13:52:40.494Z,95534.52
2018-12-13T13:55:09.664Z,95533.05
2018-12-13T13:57:38.762Z,95534.13
2018-12-13T14:00:09.914Z,95533.89
2018-12-13T14:02:39.055Z,95535.60
2018-12-13T14:05:08.424Z,95537.80
2018-12-13T14:07:37.565Z,95535.79
2018-12-13T14:10:07.488Z,95533.31
2018-12-13T14:12:36.579Z,95532.85
2018-12-13T14:15:07.170Z,95532.23
2018-12-13T14:17:36.254Z,95532.23
2018-12-13T14:20:05.595Z,95532.31
2018-12-13T14:22:34.729Z,95533.59
2018-12-13T14:25:04.151Z,95537.11
2018-12-13T14:27:33.263Z,95535.17
2018-12-13T14:30:02.403Z,95540.70
2018-12-13T14:32:31.511Z,95536.80
2018-12-13T14:35:00.689Z,95532.02
2018-12-13T14:37:29.785Z,95519.32
2018-12-13T14:39:58.874Z,95532.63
2018-12-13T14:42:27.984Z,95533.09
2018-12-13T14:44:57.127Z,95541.52
2018-12-13T14:47:26.294Z,95547.59
2018-12-13T14:49:55.426Z,95544.70
2018-12-13T14:52:24.571Z,95546.67
2018-12-13T14:54:53.766Z,95547.08
2018-12-13T14:57:22.955Z,95543.91
2018-12-13T14:59:52.088Z,95544.52
2018-12-13T15:02:21.178Z,95546.39
2018-12-13T15:04:50.474Z,95553.00
2018-12-13T15:07:19.698Z,95553.94
2018-12-13T15:09:51.058Z,95549.37
2018-12-13T15:12:19.991Z,95551.64
2018-12-13T15:14:49.112Z,95555.68
2018-12-13T15:17:18.199Z,95555.95
2018-12-13T15:19:47.536Z,95549.09
2018-12-13T15:22:16.628Z,95554.05
2018-12-13T15:24:45.731Z,95556.06
2018-12-13T15:27:14.901Z,95549.95
2018-12-13T15:29:44.005Z,95550.42
2018-12-13T15:32:13.177Z,95550.17
2018-12-13T15:34:42.335Z,95550.28
2018-12-13T15:37:11.427Z,95555.55
2018-12-13T15:39:40.636Z,95558.11
2018-12-13T15:42:09.907Z,95560.11
2018-12-13T15:44:39.182Z,95556.36
2018-12-13T15:47:08.240Z,95554.34
2018-12-13T15:49:37.665Z,95556.41
2018-12-13T15:52:06.775Z,95550.09
2018-12-13T15:54:35.908Z,95559.99
2018-12-13T15:57:05.179Z,95561.38
2018-12-13T15:59:34.282Z,95562.06
2018-12-13T16:04:51.354Z,95567.02
2018-12-13T16:07:20.504Z,95563.41
2018-12-13T16:09:49.693Z,95562.66
2018-12-13T16:12:18.948Z,95567.11
2018-12-13T16:14:48.085Z,95569.45
2018-12-13T16:17:17.267Z,95565.23
2018-12-13T16:19:46.759Z,95572.35
2018-12-13T16:22:16.086Z,95575.52
2018-12-13T16:24:45.305Z,95574.83
2018-12-13T16:27:14.695Z,95571.31
2018-12-13T16:29:43.864Z,95566.97
2018-12-13T16:32:12.995Z,95569.45
2018-12-13T16:34:42.126Z,95572.88
2018-12-13T16:37:11.237Z,95570.86
2018-12-13T16:39:40.383Z,95571.88
2018-12-13T16:42:09.586Z,95570.54
2018-12-13T16:44:38.815Z,95571.00
2018-12-13T16:47:08.143Z,95573.94
2018-12-13T16:49:37.318Z,95564.75
2018-12-13T16:52:06.985Z,95569.27
2018-12-13T16:54:36.055Z,95573.81
2018-12-13T16:57:05.191Z,95573.87
2018-12-13T16:59:34.301Z,95571.33
2018-12-13T17:02:03.395Z,95568.31
2018-12-13T17:04:32.611Z,95565.20
2018-12-13T17:07:01.728Z,95567.84
2018-12-13T17:09:30.831Z,95562.06
2018-12-13T17:12:00.039Z,95564.70
2018-12-13T17:14:29.107Z,95574.61
2018-12-13T17:16:58.283Z,95579.20
2018-12-13T17:19:27.640Z,95579.30
2018-12-13T17:21:56.725Z,95577.38
2018-12-13T17:24:25.827Z,95576.23
2018-12-13T17:26:54.970Z,95568.70
2018-12-13T17:29:24.426Z,95575.47
2018-12-13T17:31:53.566Z,95574.48
2018-12-13T17:34:22.682Z,95572.46
2018-12-13T17:36:51.836Z,95584.77
2018-12-13T17:39:20.958Z,95587.58
2018-12-13T17:41:50.090Z,95589.48
2018-12-13T17:44:19.162Z,95584.02
2018-12-13T17:46:48.261Z,95588.52
2018-12-13T17:49:17.388Z,95585.56
2018-12-13T17:51:46.499Z,95579.86
2018-12-13T17:54:15.732Z,95574.22
2018-12-13T17:56:51.495Z,95573.15
2018-12-13T17:59:20.582Z,95575.37
2018-12-13T18:01:50.445Z,95557.96
2018-12-13T18:04:19.846Z,95572.66
2018-12-13T18:06:49.395Z,95574.44
2018-12-13T18:09:18.549Z,95575.02
2018-12-13T18:11:47.647Z,95567.81
2018-12-13T18:14:16.843Z,95576.03
2018-12-13T18:16:46.058Z,95576.08
2018-12-13T18:19:15.182Z,95582.19
2018-12-13T18:21:44.313Z,95586.20
2018-12-13T18:24:13.406Z,95589.09
2018-12-13T18:26:42.742Z,95591.27
2018-12-13T18:29:11.914Z,95592.92
2018-12-13T18:31:41.140Z,95592.52
2018-12-13T18:34:10.279Z,95590.22
2018-12-13T18:36:39.365Z,95594.92
2018-12-13T18:39:10.175Z,95593.03
2018-12-13T18:41:39.387Z,95596.41
2018-12-13T18:44:08.481Z,95592.01
2018-12-13T18:46:37.583Z,95596.12
2018-12-13T18:49:06.861Z,95605.05
2018-12-13T18:51:36.058Z,95596.13
2018-12-13T18:54:05.389Z,95595.87
2018-12-13T18:56:34.531Z,95600.38
2018-12-13T18:59:03.783Z,95596.06
2018-12-13T19:01:32.859Z,95594.25
2018-12-13T19:04:02.007Z,95587.89
2018-12-13T19:06:31.259Z,95588.03
2018-12-13T19:09:00.359Z,95593.34
2018-12-13T19:11:29.595Z,95593.25
2018-12-13T19:13:58.744Z,95590.84
2018-12-13T19:16:28.293Z,95602.75
2018-12-13T19:18:57.383Z,95604.34
2018-12-13T19:21:26.500Z,95602.50
2018-12-13T19:23:57.062Z,95603.34
2018-12-13T19:26:26.495Z,95598.68
2018-12-13T19:28:55.791Z,95603.57
2018-12-13T19:31:24.879Z,95604.70
2018-12-13T19:33:54.133Z,95611.89
2018-12-13T19:36:23.228Z,95610.59
2018-12-13T19:38:52.324Z,95609.20
2018-12-13T19:41:21.442Z,95607.64
2018-12-13T19:43:50.550Z,95612.64
2018-12-13T19:46:19.670Z,95611.91
2018-12-13T19:48:48.792Z,95614.23
2018-12-13T19:51:17.980Z,95611.72
2018-12-13T19:53:47.083Z,95616.85
2018-12-13T19:56:16.221Z,95618.21
2018-12-13T19:58:45.310Z,95615.20
2018-12-13T20:01:14.431Z,95609.31
2018-12-13T20:03:43.663Z,95614.09
2018-12-13T20:06:13.450Z,95619.09
2018-12-13T20:08:43.264Z,95609.34
2018-12-13T20:11:12.428Z,95613.86
2018-12-13T20:13:41.506Z,95618.31
2018-12-13T20:18:38.603Z,95621.47
2018-12-13T20:21:14.578Z,95626.17
2018-12-13T20:23:43.758Z,95630.57
2018-12-13T20:26:12.864Z,95618.91
2018-12-13T20:28:48.799Z,95616.47
2018-12-13T20:31:17.893Z,95617.39
2018-12-13T20:33:47.527Z,95619.23
2018-12-13T20:36:16.669Z,95620.90
2018-12-13T20:38:45.889Z,95619.98
2018-12-13T20:41:14.978Z,95623.84
2018-12-13T20:43:44.160Z,95617.35
2018-12-13T20:46:13.320Z,95613.17
2018-12-13T20:48:42.566Z,95606.27
2018-12-13T20:51:11.718Z,95616.12
2018-12-13T20:53:40.867Z,95616.33
2018-12-13T20:56:10.005Z,95611.33
2018-12-13T20:58:39.452Z,95610.77
2018-12-13T21:01:08.539Z,95607.97
2018-12-13T21:03:37.857Z,95605.73
2018-12-13T21:06:07.040Z,95602.86
2018-12-13T21:08:36.143Z,95606.91
2018-12-13T21:11:07.602Z,95601.63
2018-12-13T21:13:36.569Z,95604.48
2018-12-13T21:16:05.802Z,95603.33
2018-12-13T21:18:34.929Z,95606.80
2018-12-13T21:21:04.157Z,95610.73
2018-12-13T21:23:33.473Z,95611.80
2018-12-13T21:26:02.687Z,95614.41
2018-12-13T21:28:31.853Z,95616.79
2018-12-13T21:31:01.028Z,95613.39
2018-12-13T21:33:30.239Z,95620.16
2018-12-13T21:35:59.364Z,95622.06
2018-12-13T21:38:28.468Z,95625.19
2018-12-13T21:40:57.683Z,95622.64
2018-12-13T21:43:27.438Z,95623.17
2018-12-13T21:45:56.568Z,95618.38
2018-12-13T21:48:25.686Z,95626.74
2018-12-13T21:50:54.816Z,95625.03
2018-12-13T21:53:24.222Z,95627.09
2018-12-13T21:55:53.364Z,95634.32
2018-12-13T21:58:22.514Z,95631.14
2018-12-13T22:00:52.224Z,95633.11
2018-12-13T22:03:21.468Z,95630.18
2018-12-13T22:05:50.839Z,95622.81
2018-12-13T22:08:20.055Z,95624.43
2018-12-13T22:10:49.175Z,95621.88
2018-12-13T22:13:19.062Z,95634.66
2018-12-13T22:15:48.361Z,95628.52
2018-12-13T22:18:17.449Z,95633.13
2018-12-13T22:20:46.587Z,95630.19
2018-12-13T22:23:15.757Z,95633.02
2018-12-13T22:25:44.885Z,95638.12
2018-12-13T22:28:14.059Z,95632.59
2018-12-13T22:30:43.385Z,95636.84
2018-12-13T22:33:12.495Z,95635.68
2018-12-13T22:35:41.646Z,95636.91
2018-12-13T22:38:10.773Z,95636.42
2018-12-13T22:40:39.880Z,95638.09
2018-12-13T22:43:09.071Z,95641.59
2018-12-13T22:45:38.357Z,95639.84
2018-12-13T22:48:07.478Z,95633.64
2018-12-13T22:50:36.738Z,95641.38
2018-12-13T22:53:06.170Z,95637.09
2018-12-13T22:55:35.339Z,95638.55
2018-12-13T22:58:04.725Z,95637.69
2018-12-13T23:00:34.098Z,95641.52
2018-12-13T23:03:03.599Z,95633.62
2018-12-13T23:05:33.466Z,95629.19
2018-12-13T23:08:02.743Z,95635.20
2018-12-13T23:10:32.259Z,95631.14
2018-12-13T23:13:01.518Z,95637.69
2018-12-13T23:15:31.074Z,95636.55
2018-12-13T23:18:00.274Z,95638.58
2018-12-13T23:20:31.705Z,95642.33
2018-12-13T23:23:00.926Z,95636.81
2018-12-13T23:25:30.165Z,95634.00
2018-12-13T23:27:59.476Z,95640.38
2018-12-13T23:30:28.707Z,95638.67
2018-12-13T23:32:57.915Z,95636.13
2018-12-13T23:35:27.046Z,95639.64
2018-12-13T23:37:56.373Z,95637.09
2018-12-13T23:40:25.492Z,95637.23
2018-12-13T23:42:54.839Z,95642.94
2018-12-13T23:45:24.602Z,95648.37
2018-12-13T23:47:53.716Z,95641.05
2018-12-13T23:50:23.046Z,95649.09
2018-12-13T23:52:52.255Z,95649.09
2018-12-13T23:55:21.396Z,95649.41
2018-12-13T23:57:50.625Z,95646.25
